sensor_id;sensor_type;location;lat;lon;timestamp;pressure;altitude;pressure_sealevel;temperature;humidity
46574;BME280;32299;53.366;-1.544;2022-12-18T00:01:21;99245.89;;;5.27;41.95
46574;BME280;32299;53.366;-1.544;2022-12-18T00:03:55;99247.14;;;5.20;42.04
46574;BME280;32299;53.366;-1.544;2022-12-18T00:06:23;99238.13;;;5.09;42.12
46574;BME280;32299;53.366;-1.544;2022-12-18T00:08:51;99228.09;;;5.07;42.17
46574;BME280;32299;53.366;-1.544;2022-12-18T00:11:20;99227.73;;;5.07;42.11
46574;BME280;32299;53.366;-1.544;2022-12-18T00:13:48;99227.85;;;4.87;41.93
46574;BME280;32299;53.366;-1.544;2022-12-18T00:16:18;99231.83;;;5.05;42.01
46574;BME280;32299;53.366;-1.544;2022-12-18T00:18:47;99226.57;;;4.78;42.06
46574;BME280;32299;53.366;-1.544;2022-12-18T00:21:14;99226.48;;;4.97;42.11
46574;BME280;32299;53.366;-1.544;2022-12-18T00:23:43;99220.08;;;5.03;42.03
46574;BME280;32299;53.366;-1.544;2022-12-18T00:26:16;99212.95;;;4.66;42.12
46574;BME280;32299;53.366;-1.544;2022-12-18T00:28:44;99212.50;;;4.83;42.26
46574;BME280;32299;53.366;-1.544;2022-12-18T00:31:13;99212.50;;;4.49;42.27
46574;BME280;32299;53.366;-1.544;2022-12-18T00:33:41;99212.15;;;4.80;41.90
46574;BME280;32299;53.366;-1.544;2022-12-18T00:36:10;99212.52;;;4.75;42.22
46574;BME280;32299;53.366;-1.544;2022-12-18T00:38:38;99214.39;;;4.75;42.14
46574;BME280;32299;53.366;-1.544;2022-12-18T00:41:07;99217.20;;;4.72;42.28
46574;BME280;32299;53.366;-1.544;2022-12-18T00:43:36;99215.38;;;4.67;42.22
46574;BME280;32299;53.366;-1.544;2022-12-18T00:46:04;99211.92;;;4.63;42.23
46574;BME280;32299;53.366;-1.544;2022-12-18T00:48:32;99206.24;;;4.74;41.89
46574;BME280;32299;53.366;-1.544;2022-12-18T00:50:59;99205.66;;;4.58;42.28
46574;BME280;32299;53.366;-1.544;2022-12-18T00:53:26;99218.67;;;4.80;42.25
46574;BME280;32299;53.366;-1.544;2022-12-18T00:55:53;99224.38;;;4.57;42.08
46574;BME280;32299;53.366;-1.544;2022-12-18T00:58:21;99227.61;;;4.82;42.08
46574;BME280;32299;53.366;-1.544;2022-12-18T01:00:47;99232.94;;;4.56;42.06
46574;BME280;32299;53.366;-1.544;2022-12-18T01:03:14;99239.24;;;4.57;41.93
46574;BME280;32299;53.366;-1.544;2022-12-18T01:05:41;99242.53;;;4.52;41.97
46574;BME280;32299;53.366;-1.544;2022-12-18T01:08:09;99239.67;;;4.45;41.97
46574;BME280;32299;53.366;-1.544;2022-12-18T01:10:42;99237.09;;;4.58;41.69
46574;BME280;32299;53.366;-1.544;2022-12-18T01:13:09;99239.08;;;4.89;42.03
46574;BME280;32299;53.366;-1.544;2022-12-18T01:15:36;99238.32;;;5.01;41.72
46574;BME280;32299;53.366;-1.544;2022-12-18T01:18:07;99242.36;;;4.72;41.72
46574;BME280;32299;53.366;-1.544;2022-12-18T01:20:34;99231.93;;;4.55;41.92
46574;BME280;32299;53.366;-1.544;2022-12-18T01:23:01;99223.06;;;4.85;41.65
46574;BME280;32299;53.366;-1.544;2022-12-18T01:25:28;99225.21;;;4.56;41.75
46574;BME280;32299;53.366;-1.544;2022-12-18T01:27:54;99211.38;;;4.69;41.88
46574;BME280;32299;53.366;-1.544;2022-12-18T01:30:21;99210.18;;;4.22;41.86
46574;BME280;32299;53.366;-1.544;2022-12-18T01:32:49;99205.11;;;4.21;41.80
46574;BME280;32299;53.366;-1.544;2022-12-18T01:35:15;99206.47;;;4.68;41.81
46574;BME280;32299;53.366;-1.544;2022-12-18T01:37:42;99209.95;;;4.55;41.69
46574;BME280;32299;53.366;-1.544;2022-12-18T01:40:10;99212.55;;;4.56;41.55
46574;BME280;32299;53.366;-1.544;2022-12-18T01:42:37;99216.49;;;4.42;41.76
46574;BME280;32299;53.366;-1.544;2022-12-18T01:45:08;99219.05;;;4.11;41.86
46574;BME280;32299;53.366;-1.544;2022-12-18T01:47:50;99220.53;;;4.35;41.68
46574;BME280;32299;53.366;-1.544;2022-12-18T01:50:21;99219.49;;;4.16;41.55
46574;BME280;32299;53.366;-1.544;2022-12-18T01:52:52;99221.01;;;4.15;41.53
46574;BME280;32299;53.366;-1.544;2022-12-18T01:55:23;99228.85;;;4.17;41.63
46574;BME280;32299;53.366;-1.544;2022-12-18T01:57:54;99234.40;;;4.20;41.63
46574;BME280;32299;53.366;-1.544;2022-12-18T02:00:23;99235.62;;;4.20;41.69
46574;BME280;32299;53.366;-1.544;2022-12-18T02:02:51;99234.51;;;4.20;41.75
46574;BME280;32299;53.366;-1.544;2022-12-18T02:05:26;99232.75;;;4.20;41.73
46574;BME280;32299;53.366;-1.544;2022-12-18T02:08:03;99233.55;;;4.25;41.59
46574;BME280;32299;53.366;-1.544;2022-12-18T02:10:40;99230.23;;;4.18;41.62
46574;BME280;32299;53.366;-1.544;2022-12-18T02:13:14;99222.81;;;4.32;41.61
46574;BME280;32299;53.366;-1.544;2022-12-18T02:15:51;99224.07;;;4.32;41.58
46574;BME280;32299;53.366;-1.544;2022-12-18T02:18:23;99227.34;;;4.04;41.69
46574;BME280;32299;53.366;-1.544;2022-12-18T02:20:57;99227.04;;;4.50;41.61
46574;BME280;32299;53.366;-1.544;2022-12-18T02:23:42;99230.84;;;4.24;41.55
46574;BME280;32299;53.366;-1.544;2022-12-18T02:26:19;99236.58;;;4.02;41.61
46574;BME280;32299;53.366;-1.544;2022-12-18T02:28:53;99241.03;;;3.97;41.62
46574;BME280;32299;53.366;-1.544;2022-12-18T02:31:25;99248.27;;;4.22;41.54
46574;BME280;32299;53.366;-1.544;2022-12-18T02:33:58;99245.05;;;3.97;41.54
46574;BME280;32299;53.366;-1.544;2022-12-18T02:36:28;99241.13;;;3.94;41.58
46574;BME280;32299;53.366;-1.544;2022-12-18T02:38:58;99246.91;;;4.18;41.51
46574;BME280;32299;53.366;-1.544;2022-12-18T02:41:26;99243.85;;;4.43;41.51
46574;BME280;32299;53.366;-1.544;2022-12-18T02:43:57;99243.87;;;3.94;41.48
46574;BME280;32299;53.366;-1.544;2022-12-18T02:46:30;99250.09;;;4.41;41.52
46574;BME280;32299;53.366;-1.544;2022-12-18T02:49:11;99249.26;;;4.14;41.57
46574;BME280;32299;53.366;-1.544;2022-12-18T02:51:48;99248.25;;;3.90;41.61
46574;BME280;32299;53.366;-1.544;2022-12-18T02:54:23;99241.00;;;4.10;41.59
46574;BME280;32299;53.366;-1.544;2022-12-18T02:56:55;99228.89;;;3.83;41.51
46574;BME280;32299;53.366;-1.544;2022-12-18T02:59:29;99231.93;;;4.07;41.45
46574;BME280;32299;53.366;-1.544;2022-12-18T03:02:01;99224.67;;;4.01;41.44
46574;BME280;32299;53.366;-1.544;2022-12-18T03:04:32;99218.09;;;3.99;41.41
46574;BME280;32299;53.366;-1.544;2022-12-18T03:07:05;99221.82;;;3.91;41.41
46574;BME280;32299;53.366;-1.544;2022-12-18T03:09:37;99225.37;;;4.22;41.37
46574;BME280;32299;53.366;-1.544;2022-12-18T03:12:10;99218.07;;;4.14;41.43
46574;BME280;32299;53.366;-1.544;2022-12-18T03:14:42;99213.82;;;4.18;41.54
46574;BME280;32299;53.366;-1.544;2022-12-18T03:17:15;99215.99;;;4.07;41.67
46574;BME280;32299;53.366;-1.544;2022-12-18T03:19:46;99216.61;;;3.93;41.89
46574;BME280;32299;53.366;-1.544;2022-12-18T03:22:15;99212.89;;;3.91;41.85
46574;BME280;32299;53.366;-1.544;2022-12-18T03:24:45;99208.56;;;3.90;41.84
46574;BME280;32299;53.366;-1.544;2022-12-18T03:27:15;99209.70;;;3.99;41.72
46574;BME280;32299;53.366;-1.544;2022-12-18T03:29:47;99211.52;;;3.92;41.79
46574;BME280;32299;53.366;-1.544;2022-12-18T03:32:20;99210.92;;;3.90;41.76
46574;BME280;32299;53.366;-1.544;2022-12-18T03:34:52;99204.52;;;3.90;41.65
46574;BME280;32299;53.366;-1.544;2022-12-18T03:37:20;99202.45;;;3.74;41.60
46574;BME280;32299;53.366;-1.544;2022-12-18T03:39:47;99196.16;;;3.67;41.87
46574;BME280;32299;53.366;-1.544;2022-12-18T03:42:17;99191.94;;;3.60;42.05
46574;BME280;32299;53.366;-1.544;2022-12-18T03:44:52;99184.22;;;3.85;41.76
46574;BME280;32299;53.366;-1.544;2022-12-18T03:47:27;99174.74;;;3.76;41.77
46574;BME280;32299;53.366;-1.544;2022-12-18T03:49:59;99173.55;;;3.84;41.65
46574;BME280;32299;53.366;-1.544;2022-12-18T03:52:36;99165.81;;;3.70;41.83
46574;BME280;32299;53.366;-1.544;2022-12-18T03:55:07;99161.82;;;3.67;41.82
46574;BME280;32299;53.366;-1.544;2022-12-18T03:57:36;99156.95;;;3.65;41.84
46574;BME280;32299;53.366;-1.544;2022-12-18T04:00:08;99147.03;;;3.72;41.76
46574;BME280;32299;53.366;-1.544;2022-12-18T04:02:36;99128.48;;;3.44;41.68
46574;BME280;32299;53.366;-1.544;2022-12-18T04:05:07;99122.75;;;3.46;41.69
46574;BME280;32299;53.366;-1.544;2022-12-18T04:07:37;99119.63;;;3.68;41.57
46574;BME280;32299;53.366;-1.544;2022-12-18T04:10:07;99117.16;;;3.68;41.57
46574;BME280;32299;53.366;-1.544;2022-12-18T04:12:37;99115.57;;;3.70;41.64
46574;BME280;32299;53.366;-1.544;2022-12-18T04:15:06;99107.17;;;3.66;41.64
46574;BME280;32299;53.366;-1.544;2022-12-18T04:17:34;99099.59;;;3.38;41.61
46574;BME280;32299;53.366;-1.544;2022-12-18T04:20:01;99101.52;;;3.61;41.67
46574;BME280;32299;53.366;-1.544;2022-12-18T04:22:28;99105.42;;;3.72;41.68
46574;BME280;32299;53.366;-1.544;2022-12-18T04:24:54;99104.45;;;3.75;41.84
46574;BME280;32299;53.366;-1.544;2022-12-18T04:27:21;99113.49;;;3.59;42.09
46574;BME280;32299;53.366;-1.544;2022-12-18T04:29:48;99103.01;;;3.41;42.10
46574;BME280;32299;53.366;-1.544;2022-12-18T04:32:15;99095.48;;;3.38;41.96
46574;BME280;32299;53.366;-1.544;2022-12-18T04:34:43;99089.21;;;3.41;42.38
46574;BME280;32299;53.366;-1.544;2022-12-18T04:37:09;99083.63;;;3.33;42.08
46574;BME280;32299;53.366;-1.544;2022-12-18T04:39:37;99072.07;;;3.58;42.13
46574;BME280;32299;53.366;-1.544;2022-12-18T04:42:04;99072.20;;;3.47;42.37
46574;BME280;32299;53.366;-1.544;2022-12-18T04:44:31;99082.17;;;3.56;42.31
46574;BME280;32299;53.366;-1.544;2022-12-18T04:46:58;99082.67;;;3.60;42.22
46574;BME280;32299;53.366;-1.544;2022-12-18T04:49:26;99083.81;;;3.55;42.31
46574;BME280;32299;53.366;-1.544;2022-12-18T04:51:53;99086.13;;;3.59;42.24
46574;BME280;32299;53.366;-1.544;2022-12-18T04:54:20;99077.31;;;3.33;42.32
46574;BME280;32299;53.366;-1.544;2022-12-18T04:56:47;99065.70;;;3.25;42.40
46574;BME280;32299;53.366;-1.544;2022-12-18T04:59:14;99062.66;;;3.56;42.32
46574;BME280;32299;53.366;-1.544;2022-12-18T05:01:41;99053.58;;;3.28;42.41
46574;BME280;32299;53.366;-1.544;2022-12-18T05:04:08;99046.95;;;3.37;42.28
46574;BME280;32299;53.366;-1.544;2022-12-18T05:06:36;99046.15;;;3.55;42.41
46574;BME280;32299;53.366;-1.544;2022-12-18T05:09:03;99047.94;;;3.34;42.32
46574;BME280;32299;53.366;-1.544;2022-12-18T05:11:30;99042.77;;;3.45;42.20
46574;BME280;32299;53.366;-1.544;2022-12-18T05:13:57;99031.17;;;3.58;42.46
46574;BME280;32299;53.366;-1.544;2022-12-18T05:16:24;99022.69;;;3.58;42.48
46574;BME280;32299;53.366;-1.544;2022-12-18T05:18:51;99018.29;;;3.38;42.55
46574;BME280;32299;53.366;-1.544;2022-12-18T05:21:18;99016.08;;;3.51;42.76
46574;BME280;32299;53.366;-1.544;2022-12-18T05:23:45;99009.78;;;3.51;42.81
46574;BME280;32299;53.366;-1.544;2022-12-18T05:26:15;99017.33;;;3.40;42.74
46574;BME280;32299;53.366;-1.544;2022-12-18T05:28:44;99025.16;;;3.41;42.82
46574;BME280;32299;53.366;-1.544;2022-12-18T05:31:11;99022.11;;;3.41;42.80
46574;BME280;32299;53.366;-1.544;2022-12-18T05:33:38;99015.92;;;3.41;42.94
46574;BME280;32299;53.366;-1.544;2022-12-18T05:36:08;99017.02;;;3.44;42.90
46574;BME280;32299;53.366;-1.544;2022-12-18T05:38:37;99012.86;;;3.48;42.81
46574;BME280;32299;53.366;-1.544;2022-12-18T05:41:05;99010.50;;;3.45;43.01
46574;BME280;32299;53.366;-1.544;2022-12-18T05:43:34;99008.34;;;3.48;43.12
46574;BME280;32299;53.366;-1.544;2022-12-18T05:46:05;99009.95;;;3.81;42.89
46574;BME280;32299;53.366;-1.544;2022-12-18T05:48:33;99008.77;;;3.58;43.33
46574;BME280;32299;53.366;-1.544;2022-12-18T05:51:05;99026.56;;;3.80;43.03
46574;BME280;32299;53.366;-1.544;2022-12-18T05:53:32;99036.17;;;3.62;42.77
46574;BME280;32299;53.366;-1.544;2022-12-18T05:56:00;99036.84;;;3.52;43.13
46574;BME280;32299;53.366;-1.544;2022-12-18T05:58:28;99040.84;;;3.70;42.62
46574;BME280;32299;53.366;-1.544;2022-12-18T06:00:56;99038.91;;;3.52;43.14
46574;BME280;32299;53.366;-1.544;2022-12-18T06:03:23;99036.07;;;3.06;42.87
46574;BME280;32299;53.366;-1.544;2022-12-18T06:05:50;99045.32;;;3.45;43.05
46574;BME280;32299;53.366;-1.544;2022-12-18T06:08:17;99048.92;;;3.69;43.01
46574;BME280;32299;53.366;-1.544;2022-12-18T06:10:50;99050.98;;;3.43;42.86
46574;BME280;32299;53.366;-1.544;2022-12-18T06:13:18;99050.13;;;3.65;43.02
46574;BME280;32299;53.366;-1.544;2022-12-18T06:15:45;99033.35;;;3.40;43.42
46574;BME280;32299;53.366;-1.544;2022-12-18T06:18:12;99022.09;;;3.34;43.15
46574;BME280;32299;53.366;-1.544;2022-12-18T06:20:40;99020.12;;;3.79;43.08
46574;BME280;32299;53.366;-1.544;2022-12-18T06:23:07;99025.14;;;3.54;43.17
46574;BME280;32299;53.366;-1.544;2022-12-18T06:25:36;99029.61;;;3.88;42.95
46574;BME280;32299;53.366;-1.544;2022-12-18T06:28:09;99030.48;;;3.49;43.10
46574;BME280;32299;53.366;-1.544;2022-12-18T06:30:36;99026.70;;;3.59;43.11
46574;BME280;32299;53.366;-1.544;2022-12-18T06:33:04;99014.32;;;3.25;43.20
46574;BME280;32299;53.366;-1.544;2022-12-18T06:35:32;99009.88;;;3.43;43.06
46574;BME280;32299;53.366;-1.544;2022-12-18T06:37:58;99009.43;;;3.62;42.95
46574;BME280;32299;53.366;-1.544;2022-12-18T06:40:27;99015.28;;;3.61;43.03
46574;BME280;32299;53.366;-1.544;2022-12-18T06:42:54;99027.18;;;3.65;43.08
46574;BME280;32299;53.366;-1.544;2022-12-18T06:45:22;99029.22;;;3.49;43.14
46574;BME280;32299;53.366;-1.544;2022-12-18T06:47:49;99033.22;;;3.30;43.25
46574;BME280;32299;53.366;-1.544;2022-12-18T06:50:17;99039.51;;;3.40;43.25
46574;BME280;32299;53.366;-1.544;2022-12-18T06:52:44;99039.26;;;3.30;43.51
46574;BME280;32299;53.366;-1.544;2022-12-18T06:55:11;99035.98;;;3.29;43.27
46574;BME280;32299;53.366;-1.544;2022-12-18T06:57:38;99040.61;;;3.50;42.99
46574;BME280;32299;53.366;-1.544;2022-12-18T07:00:07;99035.91;;;3.76;43.10
46574;BME280;32299;53.366;-1.544;2022-12-18T07:02:35;99034.57;;;3.39;43.39
46574;BME280;32299;53.366;-1.544;2022-12-18T07:05:02;99032.55;;;3.52;42.97
46574;BME280;32299;53.366;-1.544;2022-12-18T07:07:30;99026.21;;;3.26;43.07
46574;BME280;32299;53.366;-1.544;2022-12-18T07:09:57;99010.25;;;3.54;43.51
46574;BME280;32299;53.366;-1.544;2022-12-18T07:12:24;98995.21;;;3.15;43.38
46574;BME280;32299;53.366;-1.544;2022-12-18T07:14:52;99000.19;;;3.31;43.36
46574;BME280;32299;53.366;-1.544;2022-12-18T07:17:18;99000.69;;;3.41;43.27
46574;BME280;32299;53.366;-1.544;2022-12-18T07:19:46;98999.72;;;3.14;42.93
46574;BME280;32299;53.366;-1.544;2022-12-18T07:22:12;98996.31;;;3.24;43.35
46574;BME280;32299;53.366;-1.544;2022-12-18T07:24:40;99010.22;;;3.43;42.93
46574;BME280;32299;53.366;-1.544;2022-12-18T07:27:07;99007.42;;;3.41;43.01
46574;BME280;32299;53.366;-1.544;2022-12-18T07:29:34;98982.08;;;3.29;43.33
46574;BME280;32299;53.366;-1.544;2022-12-18T07:32:01;98973.18;;;3.25;43.54
46574;BME280;32299;53.366;-1.544;2022-12-18T07:34:28;98983.58;;;2.83;43.63
46574;BME280;32299;53.366;-1.544;2022-12-18T07:36:55;98983.66;;;3.39;43.35
46574;BME280;32299;53.366;-1.544;2022-12-18T07:39:22;98969.96;;;3.38;43.31
46574;BME280;32299;53.366;-1.544;2022-12-18T07:41:49;98968.32;;;3.41;43.16
46574;BME280;32299;53.366;-1.544;2022-12-18T07:44:16;98967.94;;;3.21;43.08
46574;BME280;32299;53.366;-1.544;2022-12-18T07:46:44;98969.13;;;3.18;43.65
46574;BME280;32299;53.366;-1.544;2022-12-18T07:49:11;98964.84;;;3.15;43.61
46574;BME280;32299;53.366;-1.544;2022-12-18T07:51:38;98967.36;;;3.21;43.29
46574;BME280;32299;53.366;-1.544;2022-12-18T07:54:06;98966.50;;;3.13;43.62
46574;BME280;32299;53.366;-1.544;2022-12-18T07:56:33;98960.98;;;3.00;43.78
46574;BME280;32299;53.366;-1.544;2022-12-18T07:59:03;98959.78;;;2.99;43.39
46574;BME280;32299;53.366;-1.544;2022-12-18T08:01:30;98959.87;;;3.11;43.54
46574;BME280;32299;53.366;-1.544;2022-12-18T08:03:57;98977.08;;;3.21;43.27
46574;BME280;32299;53.366;-1.544;2022-12-18T08:06:25;98975.49;;;3.23;43.33
46574;BME280;32299;53.366;-1.544;2022-12-18T08:08:53;98985.21;;;3.18;43.31
46574;BME280;32299;53.366;-1.544;2022-12-18T08:11:22;98970.89;;;3.19;43.23
46574;BME280;32299;53.366;-1.544;2022-12-18T08:13:49;98962.33;;;3.28;43.26
46574;BME280;32299;53.366;-1.544;2022-12-18T08:16:17;98974.99;;;3.04;43.36
46574;BME280;32299;53.366;-1.544;2022-12-18T08:18:45;98983.69;;;3.15;43.46
46574;BME280;32299;53.366;-1.544;2022-12-18T08:21:14;98990.25;;;3.18;43.08
46574;BME280;32299;53.366;-1.544;2022-12-18T08:23:42;98984.67;;;2.80;43.46
46574;BME280;32299;53.366;-1.544;2022-12-18T08:26:10;98983.84;;;3.13;43.42
46574;BME280;32299;53.366;-1.544;2022-12-18T08:28:38;98976.06;;;3.26;43.18
46574;BME280;32299;53.366;-1.544;2022-12-18T08:31:05;98983.17;;;2.98;43.21
46574;BME280;32299;53.366;-1.544;2022-12-18T08:33:33;98976.97;;;2.96;43.09
46574;BME280;32299;53.366;-1.544;2022-12-18T08:36:01;98976.38;;;3.05;43.42
46574;BME280;32299;53.366;-1.544;2022-12-18T08:38:29;98973.57;;;3.23;42.94
46574;BME280;32299;53.366;-1.544;2022-12-18T08:41:03;98969.64;;;3.23;43.04
46574;BME280;32299;53.366;-1.544;2022-12-18T08:43:31;98959.90;;;3.31;43.02
46574;BME280;32299;53.366;-1.544;2022-12-18T08:45:58;98959.71;;;3.19;43.06
46574;BME280;32299;53.366;-1.544;2022-12-18T08:48:25;98959.59;;;3.23;43.04
46574;BME280;32299;53.366;-1.544;2022-12-18T08:50:56;98958.74;;;3.05;43.32
46574;BME280;32299;53.366;-1.544;2022-12-18T08:53:27;98947.88;;;3.10;42.98
46574;BME280;32299;53.366;-1.544;2022-12-18T08:55:56;98936.82;;;3.02;43.09
46574;BME280;32299;53.366;-1.544;2022-12-18T08:58:24;98938.60;;;2.95;43.16
46574;BME280;32299;53.366;-1.544;2022-12-18T09:00:51;98933.15;;;3.03;43.29
46574;BME280;32299;53.366;-1.544;2022-12-18T09:03:19;98932.67;;;3.00;43.35
46574;BME280;32299;53.366;-1.544;2022-12-18T09:05:46;98937.70;;;2.87;43.51
46574;BME280;32299;53.366;-1.544;2022-12-18T09:08:15;98931.22;;;3.04;43.10
46574;BME280;32299;53.366;-1.544;2022-12-18T09:10:43;98919.25;;;3.06;43.06
46574;BME280;32299;53.366;-1.544;2022-12-18T09:13:11;98915.40;;;2.89;43.34
46574;BME280;32299;53.366;-1.544;2022-12-18T09:15:41;98915.56;;;2.92;43.26
46574;BME280;32299;53.366;-1.544;2022-12-18T09:18:08;98911.01;;;3.04;43.03
46574;BME280;32299;53.366;-1.544;2022-12-18T09:20:36;98910.18;;;3.01;43.13
46574;BME280;32299;53.366;-1.544;2022-12-18T09:23:03;98907.16;;;2.96;43.28
46574;BME280;32299;53.366;-1.544;2022-12-18T09:25:31;98901.20;;;2.86;43.03
46574;BME280;32299;53.366;-1.544;2022-12-18T09:27:57;98886.76;;;3.12;42.82
46574;BME280;32299;53.366;-1.544;2022-12-18T09:30:25;98880.69;;;3.10;42.70
46574;BME280;32299;53.366;-1.544;2022-12-18T09:32:55;98871.99;;;2.78;43.20
46574;BME280;32299;53.366;-1.544;2022-12-18T09:35:22;98873.48;;;3.07;43.08
46574;BME280;32299;53.366;-1.544;2022-12-18T09:37:50;98865.58;;;2.95;43.33
46574;BME280;32299;53.366;-1.544;2022-12-18T09:40:20;98868.54;;;3.03;43.08
46574;BME280;32299;53.366;-1.544;2022-12-18T09:42:51;98862.62;;;2.93;43.08
46574;BME280;32299;53.366;-1.544;2022-12-18T09:45:20;98855.57;;;2.75;43.16
46574;BME280;32299;53.366;-1.544;2022-12-18T09:47:49;98841.13;;;3.05;43.06
46574;BME280;32299;53.366;-1.544;2022-12-18T09:50:23;98832.10;;;2.92;43.15
46574;BME280;32299;53.366;-1.544;2022-12-18T09:52:54;98826.45;;;2.99;43.27
46574;BME280;32299;53.366;-1.544;2022-12-18T09:55:25;98836.30;;;2.90;43.34
46574;BME280;32299;53.366;-1.544;2022-12-18T09:58:00;98829.32;;;2.89;43.36
46574;BME280;32299;53.366;-1.544;2022-12-18T10:00:29;98833.82;;;2.88;43.30
46574;BME280;32299;53.366;-1.544;2022-12-18T10:03:00;98837.71;;;2.95;43.26
46574;BME280;32299;53.366;-1.544;2022-12-18T10:05:34;98838.48;;;2.93;43.00
46574;BME280;32299;53.366;-1.544;2022-12-18T10:08:07;98825.79;;;2.87;43.32
46574;BME280;32299;53.366;-1.544;2022-12-18T10:10:41;98831.51;;;2.93;43.14
46574;BME280;32299;53.366;-1.544;2022-12-18T10:13:18;98828.53;;;2.86;43.33
46574;BME280;32299;53.366;-1.544;2022-12-18T10:15:58;98825.17;;;2.84;43.24
46574;BME280;32299;53.366;-1.544;2022-12-18T10:18:38;98816.05;;;2.95;43.20
46574;BME280;32299;53.366;-1.544;2022-12-18T10:21:11;98815.92;;;2.65;43.36
46574;BME280;32299;53.366;-1.544;2022-12-18T10:23:45;98815.12;;;2.97;43.17
46574;BME280;32299;53.366;-1.544;2022-12-18T10:26:18;98806.47;;;3.03;43.16
46574;BME280;32299;53.366;-1.544;2022-12-18T10:28:46;98803.56;;;2.78;43.13
46574;BME280;32299;53.366;-1.544;2022-12-18T10:31:16;98799.68;;;3.05;43.12
46574;BME280;32299;53.366;-1.544;2022-12-18T10:33:44;98785.52;;;2.96;43.06
46574;BME280;32299;53.366;-1.544;2022-12-18T10:36:12;98772.19;;;3.03;42.81
46574;BME280;32299;53.366;-1.544;2022-12-18T10:38:44;98769.50;;;2.99;42.93
46574;BME280;32299;53.366;-1.544;2022-12-18T10:41:25;98776.27;;;2.95;43.13
46574;BME280;32299;53.366;-1.544;2022-12-18T10:44:15;98764.07;;;3.23;43.14
46574;BME280;32299;53.366;-1.544;2022-12-18T10:46:42;98751.33;;;3.13;43.01
46574;BME280;32299;53.366;-1.544;2022-12-18T10:49:21;98750.24;;;3.11;42.72
46574;BME280;32299;53.366;-1.544;2022-12-18T10:51:48;98743.04;;;3.02;43.22
46574;BME280;32299;53.366;-1.544;2022-12-18T10:54:18;98739.29;;;3.09;43.00
46574;BME280;32299;53.366;-1.544;2022-12-18T10:56:46;98734.34;;;3.04;43.27
46574;BME280;32299;53.366;-1.544;2022-12-18T10:59:15;98734.55;;;3.21;43.21
46574;BME280;32299;53.366;-1.544;2022-12-18T11:01:51;98729.70;;;2.92;43.50
46574;BME280;32299;53.366;-1.544;2022-12-18T11:04:22;98727.81;;;2.88;43.27
46574;BME280;32299;53.366;-1.544;2022-12-18T11:06:55;98722.25;;;3.00;43.09
46574;BME280;32299;53.366;-1.544;2022-12-18T11:09:25;98715.43;;;3.06;42.79
46574;BME280;32299;53.366;-1.544;2022-12-18T11:11:55;98710.30;;;3.27;42.94
46574;BME280;32299;53.366;-1.544;2022-12-18T11:14:25;98697.76;;;3.08;43.03
46574;BME280;32299;53.366;-1.544;2022-12-18T11:16:54;98700.29;;;3.20;43.18
46574;BME280;32299;53.366;-1.544;2022-12-18T11:19:31;98705.58;;;3.26;43.02
46574;BME280;32299;53.366;-1.544;2022-12-18T11:21:59;98697.21;;;2.94;43.28
46574;BME280;32299;53.366;-1.544;2022-12-18T11:24:30;98679.91;;;3.07;43.18
46574;BME280;32299;53.366;-1.544;2022-12-18T11:26:58;98680.77;;;3.29;43.20
46574;BME280;32299;53.366;-1.544;2022-12-18T11:29:32;98681.31;;;3.38;42.79
46574;BME280;32299;53.366;-1.544;2022-12-18T11:32:41;98671.36;;;3.23;43.36
46574;BME280;32299;53.366;-1.544;2022-12-18T11:35:15;98674.74;;;3.09;43.19
46574;BME280;32299;53.366;-1.544;2022-12-18T11:37:57;98669.19;;;3.08;43.34
46574;BME280;32299;53.366;-1.544;2022-12-18T11:40:30;98658.52;;;3.23;43.46
46574;BME280;32299;53.366;-1.544;2022-12-18T11:43:04;98655.08;;;3.37;43.10
46574;BME280;32299;53.366;-1.544;2022-12-18T11:45:35;98648.25;;;3.13;43.22
46574;BME280;32299;53.366;-1.544;2022-12-18T11:48:14;98639.28;;;3.04;43.54
46574;BME280;32299;53.366;-1.544;2022-12-18T11:50:48;98630.19;;;3.42;43.20
46574;BME280;32299;53.366;-1.544;2022-12-18T11:53:15;98615.24;;;2.99;43.35
46574;BME280;32299;53.366;-1.544;2022-12-18T11:55:50;98617.92;;;2.93;43.50
46574;BME280;32299;53.366;-1.544;2022-12-18T11:58:33;98614.89;;;3.31;43.27
46574;BME280;32299;53.366;-1.544;2022-12-18T12:01:13;98607.00;;;3.24;43.41
46574;BME280;32299;53.366;-1.544;2022-12-18T12:03:56;98597.55;;;3.09;43.32
46574;BME280;32299;53.366;-1.544;2022-12-18T12:06:33;98583.96;;;3.26;43.45
46574;BME280;32299;53.366;-1.544;2022-12-18T12:09:10;98572.04;;;3.18;43.69
46574;BME280;32299;53.366;-1.544;2022-12-18T12:11:48;98562.24;;;3.35;43.73
46574;BME280;32299;53.366;-1.544;2022-12-18T12:14:30;98561.63;;;3.45;43.57
46574;BME280;32299;53.366;-1.544;2022-12-18T12:17:06;98547.14;;;3.15;43.79
46574;BME280;32299;53.366;-1.544;2022-12-18T12:19:43;98543.88;;;3.20;43.27
46574;BME280;32299;53.366;-1.544;2022-12-18T12:22:21;98540.05;;;3.53;43.74
46574;BME280;32299;53.366;-1.544;2022-12-18T12:25:03;98532.48;;;3.30;43.64
46574;BME280;32299;53.366;-1.544;2022-12-18T12:27:42;98527.54;;;3.30;43.79
46574;BME280;32299;53.366;-1.544;2022-12-18T12:30:19;98522.51;;;3.58;43.70
46574;BME280;32299;53.366;-1.544;2022-12-18T12:33:01;98518.97;;;3.38;43.70
46574;BME280;32299;53.366;-1.544;2022-12-18T12:35:45;98513.08;;;3.46;43.59
46574;BME280;32299;53.366;-1.544;2022-12-18T12:38:17;98500.83;;;3.46;43.74
46574;BME280;32299;53.366;-1.544;2022-12-18T12:40:51;98497.36;;;3.53;43.76
46574;BME280;32299;53.366;-1.544;2022-12-18T12:43:25;98500.73;;;3.51;43.81
46574;BME280;32299;53.366;-1.544;2022-12-18T12:45:56;98506.26;;;3.44;43.93
46574;BME280;32299;53.366;-1.544;2022-12-18T12:48:34;98501.58;;;3.53;43.93
46574;BME280;32299;53.366;-1.544;2022-12-18T12:51:09;98499.45;;;3.49;43.71
46574;BME280;32299;53.366;-1.544;2022-12-18T12:53:38;98486.91;;;3.45;44.15
46574;BME280;32299;53.366;-1.544;2022-12-18T12:56:07;98484.42;;;3.35;44.28
46574;BME280;32299;53.366;-1.544;2022-12-18T12:58:41;98486.00;;;3.49;44.19
46574;BME280;32299;53.366;-1.544;2022-12-18T13:01:20;98474.01;;;3.40;44.37
46574;BME280;32299;53.366;-1.544;2022-12-18T13:03:57;98466.61;;;3.56;44.42
46574;BME280;32299;53.366;-1.544;2022-12-18T13:06:39;98454.00;;;3.21;44.95
46574;BME280;32299;53.366;-1.544;2022-12-18T13:09:08;98459.22;;;3.17;44.47
46574;BME280;32299;53.366;-1.544;2022-12-18T13:11:38;98455.88;;;3.51;44.62
46574;BME280;32299;53.366;-1.544;2022-12-18T13:14:21;98442.19;;;3.66;44.36
46574;BME280;32299;53.366;-1.544;2022-12-18T13:16:48;98433.91;;;3.64;44.33